createdAt,value
2019-05-29T00:02:06.058Z,1.70
2019-05-29T00:04:36.307Z,1.77
2019-05-29T00:07:06.132Z,1.80
2019-05-29T00:09:35.275Z,1.50
2019-05-29T00:12:04.362Z,1.73
2019-05-29T00:14:33.467Z,1.57
2019-05-29T00:17:02.407Z,1.63
2019-05-29T00:19:31.416Z,1.87
2019-05-29T00:22:00.601Z,1.90
2019-05-29T00:24:29.632Z,1.70
2019-05-29T00:26:58.773Z,1.50
2019-05-29T00:29:27.930Z,1.70
2019-05-29T00:31:56.857Z,1.70
2019-05-29T00:34:25.973Z,2.03
2019-05-29T00:36:55.019Z,1.83
2019-05-29T00:39:24.091Z,1.50
2019-05-29T00:41:53.289Z,1.40
2019-05-29T00:44:33.843Z,1.63
2019-05-29T00:46:53.469Z,1.57
2019-05-29T00:49:22.557Z,1.50
2019-05-29T00:51:51.735Z,1.50
2019-05-29T00:54:20.947Z,1.43
2019-05-29T00:56:50.037Z,1.70
2019-05-29T00:59:19.239Z,1.63
2019-05-29T01:01:48.364Z,1.50
2019-05-29T01:04:17.886Z,1.37
2019-05-29T01:06:47.015Z,1.40
2019-05-29T01:09:16.518Z,1.40
2019-05-29T01:11:45.758Z,1.40
2019-05-29T01:14:15.138Z,1.50
2019-05-29T01:16:44.175Z,1.53
2019-05-29T01:19:25.195Z,1.40
2019-05-29T01:21:55.150Z,1.50
2019-05-29T01:24:24.607Z,1.33
2019-05-29T01:26:53.659Z,1.50
2019-05-29T01:29:23.428Z,1.23
2019-05-29T01:31:52.977Z,1.40
2019-05-29T01:34:22.079Z,1.33
2019-05-29T01:36:51.047Z,1.53
2019-05-29T01:39:21.291Z,1.47
2019-05-29T01:41:50.405Z,1.40
2019-05-29T01:44:23.694Z,1.40
2019-05-29T01:46:56.020Z,1.20
2019-05-29T01:49:25.439Z,1.40
2019-05-29T01:51:54.543Z,1.53
2019-05-29T01:54:23.889Z,1.33
2019-05-29T01:56:53.040Z,1.40
2019-05-29T01:59:22.236Z,1.57
2019-05-29T02:01:51.316Z,1.40
2019-05-29T02:04:20.389Z,1.87
2019-05-29T02:06:49.322Z,1.30
2019-05-29T02:09:18.351Z,1.27
2019-05-29T02:11:47.395Z,1.40
2019-05-29T02:14:16.426Z,1.50
2019-05-29T02:16:45.638Z,1.43
2019-05-29T02:19:15.740Z,1.43
2019-05-29T02:21:44.990Z,1.33
2019-05-29T02:24:13.995Z,1.40
2019-05-29T02:26:43.072Z,1.83
2019-05-29T02:29:12.038Z,1.70
2019-05-29T02:31:41.012Z,1.60
2019-05-29T02:34:10.108Z,1.50
2019-05-29T02:36:39.148Z,1.37
2019-05-29T02:39:08.281Z,1.60
2019-05-29T02:41:37.634Z,1.70
2019-05-29T02:44:06.743Z,1.40
2019-05-29T02:46:35.881Z,1.20
2019-05-29T02:49:05.121Z,1.80
2019-05-29T02:51:34.177Z,2.37
2019-05-29T02:54:03.517Z,1.57
2019-05-29T02:56:32.558Z,1.70
2019-05-29T02:59:01.600Z,1.60
2019-05-29T03:01:31.824Z,1.70
2019-05-29T03:04:01.019Z,1.40
2019-05-29T03:06:30.349Z,1.30
2019-05-29T03:08:59.381Z,1.47
2019-05-29T03:11:29.358Z,1.40
2019-05-29T03:13:59.315Z,1.97
2019-05-29T03:16:30.111Z,1.47
2019-05-29T03:18:58.942Z,1.53
2019-05-29T03:21:28.431Z,1.83
2019-05-29T03:23:57.893Z,1.80
2019-05-29T03:26:30.310Z,1.67
2019-05-29T03:28:57.774Z,1.50
2019-05-29T03:31:30.705Z,1.60
2019-05-29T03:33:57.632Z,1.43
2019-05-29T03:36:28.686Z,2.10
2019-05-29T03:38:57.957Z,1.50
2019-05-29T03:41:35.417Z,1.40
2019-05-29T03:44:00.242Z,1.57
2019-05-29T03:46:37.728Z,1.37
2019-05-29T03:48:59.972Z,1.70
2019-05-29T03:51:31.526Z,1.60
2019-05-29T03:53:59.890Z,1.60
2019-05-29T03:56:30.422Z,1.60
2019-05-29T03:58:59.671Z,1.60
2019-05-29T04:01:29.080Z,1.70
2019-05-29T04:03:58.836Z,1.97
2019-05-29T04:06:29.092Z,1.70
2019-05-29T04:08:58.524Z,1.93
2019-05-29T04:11:29.118Z,1.77
2019-05-29T04:13:58.834Z,1.87
2019-05-29T04:16:54.032Z,1.60
2019-05-29T04:19:04.598Z,1.70
2019-05-29T04:21:34.715Z,1.60
2019-05-29T04:24:07.523Z,1.63
2019-05-29T04:26:40.257Z,1.40
2019-05-29T04:29:10.023Z,1.50
2019-05-29T04:31:39.323Z,1.93
2019-05-29T04:34:08.443Z,1.60
2019-05-29T04:36:39.091Z,1.80
2019-05-29T04:39:08.902Z,1.50
2019-05-29T04:41:39.230Z,1.63
2019-05-29T04:44:08.734Z,1.43
2019-05-29T04:46:38.469Z,1.67
2019-05-29T04:49:08.357Z,1.70
2019-05-29T04:51:37.580Z,1.60
2019-05-29T04:54:07.332Z,1.47
2019-05-29T04:56:37.083Z,1.37
2019-05-29T04:59:06.299Z,1.50
2019-05-29T05:01:35.450Z,2.00
2019-05-29T05:04:05.571Z,1.77
2019-05-29T05:06:35.287Z,1.73
2019-05-29T05:09:06.687Z,2.13
2019-05-29T05:11:36.292Z,1.67
2019-05-29T05:14:07.551Z,1.43
2019-05-29T05:16:37.896Z,1.70
2019-05-29T05:19:09.174Z,1.50
2019-05-29T05:21:38.429Z,1.40
2019-05-29T05:24:07.686Z,1.57
2019-05-29T05:26:36.776Z,1.60
2019-05-29T05:29:06.270Z,1.60
2019-05-29T05:31:36.509Z,1.70
2019-05-29T05:34:06.186Z,2.03
2019-05-29T05:36:45.113Z,2.30
2019-05-29T05:39:23.717Z,2.03
2019-05-29T05:42:02.446Z,1.80
2019-05-29T05:44:34.959Z,1.50
2019-05-29T05:47:12.245Z,1.40
2019-05-29T05:49:52.307Z,1.50
2019-05-29T05:53:07.345Z,1.40
2019-05-29T05:55:43.830Z,1.30
2019-05-29T05:58:14.906Z,1.60
2019-05-29T06:00:44.235Z,1.50
2019-05-29T06:03:13.859Z,2.00
2019-05-29T06:05:45.652Z,1.80
2019-05-29T06:08:15.581Z,1.93
2019-05-29T06:10:44.894Z,1.83
2019-05-29T06:13:14.134Z,1.87
2019-05-29T06:15:43.497Z,1.70
2019-05-29T06:18:21.301Z,1.53
2019-05-29T06:20:43.731Z,1.63
2019-05-29T06:23:13.183Z,1.40
2019-05-29T06:25:43.811Z,1.60
2019-05-29T06:28:14.848Z,1.50
2019-05-29T06:30:45.092Z,1.23
2019-05-29T06:33:14.551Z,1.60
2019-05-29T06:35:45.323Z,1.40
2019-05-29T06:38:15.089Z,1.47
2019-05-29T06:40:45.989Z,2.47
2019-05-29T06:43:24.147Z,1.77
2019-05-29T06:46:00.795Z,1.73
2019-05-29T06:48:43.051Z,1.60
2019-05-29T06:51:02.051Z,1.57
2019-05-29T06:53:31.319Z,1.50
2019-05-29T06:56:04.819Z,1.27
2019-05-29T06:58:38.079Z,1.40
2019-05-29T07:01:16.392Z,1.20
2019-05-29T07:03:48.178Z,1.30
2019-05-29T07:06:21.180Z,1.50
2019-05-29T07:08:53.181Z,1.23
2019-05-29T07:11:22.807Z,1.70
2019-05-29T07:13:52.188Z,1.73
2019-05-29T07:16:22.541Z,1.40
2019-05-29T07:19:23.872Z,1.40
2019-05-29T07:21:23.450Z,1.30
2019-05-29T07:24:10.548Z,1.20
2019-05-29T07:26:45.442Z,1.60
2019-05-29T07:29:14.922Z,1.53
2019-05-29T07:31:49.233Z,1.97
2019-05-29T07:34:20.919Z,1.67
2019-05-29T07:36:50.034Z,2.17
2019-05-29T07:39:19.509Z,1.50
2019-05-29T07:41:49.275Z,1.57
2019-05-29T07:44:18.443Z,1.90
2019-05-29T07:46:48.868Z,1.40
2019-05-29T07:49:18.757Z,1.53
2019-05-29T07:51:48.820Z,1.20
2019-05-29T07:54:18.471Z,1.40
2019-05-29T07:56:49.245Z,1.20
2019-05-29T07:59:23.036Z,1.20
2019-05-29T08:01:52.787Z,1.60
2019-05-29T08:04:22.239Z,1.10
2019-05-29T08:06:54.472Z,1.60
2019-05-29T08:09:41.734Z,1.40
2019-05-29T08:12:16.001Z,1.43
2019-05-29T08:14:45.842Z,1.97
2019-05-29T08:17:15.899Z,1.60
2019-05-29T08:20:00.353Z,1.43
2019-05-29T08:22:34.349Z,1.60
2019-05-29T08:25:00.410Z,1.80
2019-05-29T08:27:29.885Z,1.87
2019-05-29T08:30:00.929Z,1.37
2019-05-29T08:32:31.616Z,1.20
2019-05-29T08:35:01.245Z,1.40
2019-05-29T08:37:32.764Z,1.20
2019-05-29T08:40:02.840Z,1.87
2019-05-29T08:42:32.901Z,1.20
2019-05-29T08:45:02.710Z,1.30
2019-05-29T08:47:32.290Z,4.10
2019-05-29T08:50:17.233Z,1.40
2019-05-29T08:52:34.203Z,1.40
2019-05-29T08:55:06.035Z,1.50
2019-05-29T08:57:42.576Z,1.30
2019-05-29T09:00:17.605Z,1.40
2019-05-29T09:02:48.916Z,2.30
2019-05-29T09:05:20.390Z,1.33
2019-05-29T09:07:51.761Z,1.20
2019-05-29T09:10:22.797Z,1.37
2019-05-29T09:13:04.878Z,1.40
2019-05-29T09:15:30.856Z,1.43
2019-05-29T09:18:01.430Z,1.27
2019-05-29T09:20:57.418Z,1.10
2019-05-29T09:23:03.041Z,1.33
2019-05-29T09:25:32.420Z,1.10
2019-05-29T09:28:01.929Z,1.30
2019-05-29T09:30:31.518Z,1.33
2019-05-29T09:33:00.565Z,1.20
2019-05-29T09:35:29.737Z,1.60
2019-05-29T09:37:59.758Z,1.67
2019-05-29T09:40:53.132Z,1.30
2019-05-29T09:43:29.981Z,1.27
2019-05-29T09:46:34.838Z,1.30
2019-05-29T09:49:05.113Z,2.00
2019-05-29T09:51:34.374Z,2.37
2019-05-29T09:54:03.709Z,1.50
2019-05-29T09:56:33.580Z,2.00
2019-05-29T09:59:03.887Z,1.50
2019-05-29T10:01:33.161Z,1.47
2019-05-29T10:04:05.841Z,1.30
2019-05-29T10:06:33.310Z,1.70
2019-05-29T10:09:03.656Z,1.47
2019-05-29T10:11:33.080Z,1.20
2019-05-29T10:14:02.812Z,1.43
2019-05-29T10:16:32.650Z,1.17
2019-05-29T10:19:03.081Z,1.30
2019-05-29T10:21:40.139Z,1.47
2019-05-29T10:24:06.172Z,1.47
2019-05-29T10:26:37.468Z,2.73
2019-05-29T10:31:41.897Z,1.80
2019-05-29T10:34:11.482Z,1.40
2019-05-29T10:34:38.778Z,1.30
2019-05-29T10:36:40.705Z,1.20
2019-05-29T10:39:12.763Z,0.90
2019-05-29T10:41:41.178Z,1.87
2019-05-29T10:44:12.769Z,1.37
2019-05-29T10:49:36.174Z,1.50
2019-05-29T10:52:16.138Z,1.57
2019-05-29T10:54:40.783Z,1.20
2019-05-29T10:57:09.838Z,1.20
2019-05-29T10:59:39.015Z,1.30
2019-05-29T11:02:08.416Z,1.27
2019-05-29T11:04:37.555Z,1.47
2019-05-29T11:07:06.932Z,1.63
2019-05-29T11:09:44.453Z,1.50
2019-05-29T11:12:10.681Z,1.37
2019-05-29T11:14:39.965Z,1.67
2019-05-29T11:17:18.444Z,1.47
2019-05-29T11:19:49.234Z,1.40
2019-05-29T11:22:26.276Z,1.47
2019-05-29T11:24:54.356Z,1.30
2019-05-29T11:27:26.363Z,1.47
2019-05-29T11:29:57.086Z,1.10
2019-05-29T11:32:26.446Z,1.20
2019-05-29T11:34:57.450Z,1.73
2019-05-29T11:37:27.825Z,1.60
2019-05-29T11:39:59.017Z,1.60
2019-05-29T11:42:33.337Z,3.90
2019-05-29T11:45:00.027Z,1.90
2019-05-29T11:47:31.143Z,1.40
2019-05-29T11:50:14.539Z,1.60
2019-05-29T11:52:58.658Z,1.80
2019-05-29T11:55:24.899Z,1.40
2019-05-29T11:57:54.336Z,1.60
2019-05-29T12:00:25.737Z,1.40
2019-05-29T12:02:59.863Z,1.70
2019-05-29T12:05:32.890Z,1.53
2019-05-29T12:08:03.099Z,1.10
2019-05-29T12:10:33.568Z,1.20
2019-05-29T12:13:03.151Z,1.40
2019-05-29T12:15:35.158Z,1.20
2019-05-29T12:18:22.654Z,1.47
2019-05-29T12:20:37.418Z,1.50
2019-05-29T12:23:24.337Z,1.30
2019-05-29T12:25:37.642Z,1.30
2019-05-29T12:28:09.897Z,1.80
2019-05-29T12:30:53.451Z,1.73
2019-05-29T12:33:23.499Z,1.23
2019-05-29T12:35:52.983Z,1.60
2019-05-29T12:38:24.226Z,1.27
2019-05-29T12:40:59.694Z,1.20
2019-05-29T12:43:30.308Z,1.60
2019-05-29T12:46:03.995Z,1.37
2019-05-29T12:48:33.468Z,1.50
2019-05-29T12:51:04.145Z,1.30
2019-05-29T12:53:34.249Z,1.40
2019-05-29T12:56:04.577Z,1.13
2019-05-29T12:58:34.151Z,1.40
2019-05-29T13:01:05.126Z,1.40
2019-05-29T13:03:35.582Z,1.40
2019-05-29T13:06:05.174Z,1.40
2019-05-29T13:08:43.488Z,1.37
2019-05-29T13:11:14.249Z,1.30
2019-05-29T13:13:44.047Z,1.60
2019-05-29T13:16:13.372Z,1.70
2019-05-29T13:18:42.973Z,1.57
2019-05-29T13:21:14.711Z,1.33
2019-05-29T13:23:45.480Z,2.17
2019-05-29T13:26:15.427Z,1.70
2019-05-29T13:28:45.140Z,1.80
2019-05-29T13:31:14.793Z,1.70
2019-05-29T13:33:44.937Z,1.50
2019-05-29T13:36:15.042Z,1.77
2019-05-29T13:38:46.956Z,1.30
2019-05-29T13:41:16.321Z,1.70
2019-05-29T13:43:45.481Z,1.80
2019-05-29T13:46:16.540Z,1.50
2019-05-29T13:49:05.325Z,1.43
2019-05-29T13:51:37.225Z,1.67
2019-05-29T13:54:14.030Z,1.20
2019-05-29T13:56:39.923Z,1.90
2019-05-29T13:59:09.463Z,1.20
2019-05-29T14:01:39.086Z,1.43
2019-05-29T14:04:08.756Z,1.73
2019-05-29T14:06:52.767Z,1.80
2019-05-29T14:09:20.944Z,1.97
2019-05-29T14:11:50.390Z,1.40
2019-05-29T14:14:20.205Z,1.53
2019-05-29T14:16:49.635Z,1.63
2019-05-29T14:19:19.113Z,1.50
2019-05-29T14:21:50.994Z,1.60
2019-05-29T14:24:29.328Z,1.40
2019-05-29T14:26:54.387Z,1.20
2019-05-29T14:29:24.203Z,1.60
2019-05-29T14:31:53.453Z,1.53
2019-05-29T14:34:22.807Z,2.37
2019-05-29T14:36:52.201Z,2.60
2019-05-29T14:39:21.534Z,1.73
2019-05-29T14:41:52.347Z,1.60
2019-05-29T14:44:21.729Z,1.60
2019-05-29T14:46:51.095Z,1.40
2019-05-29T14:49:20.806Z,1.70
2019-05-29T14:51:50.366Z,1.33
2019-05-29T14:54:20.742Z,1.60
2019-05-29T14:56:51.759Z,1.50
2019-05-29T14:59:21.951Z,1.87
2019-05-29T15:01:53.692Z,1.67
2019-05-29T15:04:22.785Z,1.57
2019-05-29T15:07:01.491Z,3.30
2019-05-29T15:09:31.414Z,1.50
2019-05-29T15:12:01.842Z,1.33
2019-05-29T15:14:31.309Z,1.90
2019-05-29T15:17:00.784Z,1.80
2019-05-29T15:19:32.590Z,1.80
2019-05-29T15:22:09.726Z,1.63
2019-05-29T15:24:59.643Z,1.60
2019-05-29T15:27:16.187Z,1.77
2019-05-29T15:29:45.850Z,1.20
2019-05-29T15:32:16.535Z,1.33
2019-05-29T15:34:46.409Z,1.20
2019-05-29T15:37:18.960Z,1.53
2019-05-29T15:39:48.448Z,1.30
2019-05-29T15:42:20.987Z,2.10
2019-05-29T15:44:50.763Z,2.40
2019-05-29T15:47:20.436Z,1.80
2019-05-29T15:49:49.898Z,1.50
2019-05-29T15:52:23.146Z,1.70
2019-05-29T15:55:21.384Z,1.20
2019-05-29T15:57:41.720Z,1.47
2019-05-29T16:00:13.588Z,1.40
2019-05-29T16:02:47.962Z,1.40
2019-05-29T16:05:19.858Z,1.40
2019-05-29T16:07:54.004Z,1.30
2019-05-29T16:10:24.769Z,1.90
2019-05-29T16:12:54.382Z,1.53
2019-05-29T16:15:24.239Z,3.03
2019-05-29T16:17:53.749Z,2.00
2019-05-29T16:20:25.156Z,1.80
2019-05-29T16:22:55.221Z,1.57
2019-05-29T16:25:39.122Z,1.60
2019-05-29T16:27:56.174Z,1.13
2019-05-29T16:30:26.562Z,1.30
2019-05-29T16:33:00.020Z,1.67
2019-05-29T16:35:29.409Z,2.17
2019-05-29T16:37:59.859Z,2.50
2019-05-29T16:40:29.404Z,2.20
2019-05-29T16:42:59.350Z,2.60
2019-05-29T16:45:29.676Z,2.67
2019-05-29T16:48:02.128Z,1.90
2019-05-29T16:50:31.563Z,1.60
2019-05-29T16:53:00.626Z,1.50
2019-05-29T16:55:29.863Z,1.60
2019-05-29T16:57:59.133Z,1.40
2019-05-29T17:00:28.627Z,1.73
2019-05-29T17:02:58.001Z,1.60
2019-05-29T17:05:27.185Z,1.40
2019-05-29T17:07:56.972Z,1.40
2019-05-29T17:10:36.686Z,1.40
2019-05-29T17:13:06.928Z,1.93
2019-05-29T17:15:36.821Z,2.13
2019-05-29T17:18:06.611Z,4.10
2019-05-29T17:20:44.063Z,1.87
2019-05-29T17:23:16.990Z,1.50
2019-05-29T17:25:46.591Z,2.20
2019-05-29T17:28:19.028Z,1.80
2019-05-29T17:30:47.399Z,1.50
2019-05-29T17:33:17.091Z,1.40
2019-05-29T17:35:47.699Z,2.30
2019-05-29T17:38:25.733Z,2.53
2019-05-29T17:40:56.710Z,1.83
2019-05-29T17:43:28.638Z,1.53
2019-05-29T17:46:06.624Z,1.53
2019-05-29T17:48:35.210Z,2.67
2019-05-29T17:51:04.740Z,2.37
2019-05-29T17:53:34.151Z,1.70
2019-05-29T17:56:03.860Z,1.83
2019-05-29T17:58:38.414Z,1.47
2019-05-29T18:01:08.084Z,1.57
2019-05-29T18:03:37.447Z,1.10
2019-05-29T18:06:06.943Z,1.70
2019-05-29T18:08:37.606Z,1.80
2019-05-29T18:11:08.940Z,1.40
2019-05-29T18:13:38.176Z,1.60
2019-05-29T18:16:14.709Z,1.70
2019-05-29T18:18:44.407Z,2.00
2019-05-29T18:21:13.552Z,1.50
2019-05-29T18:23:42.936Z,1.80
2019-05-29T18:26:12.194Z,1.67
2019-05-29T18:28:41.504Z,1.97
2019-05-29T18:31:10.689Z,2.10
2019-05-29T18:33:40.219Z,1.50
2019-05-29T18:36:10.933Z,1.60
2019-05-29T18:38:53.624Z,1.70
2019-05-29T18:41:28.513Z,1.83
2019-05-29T18:44:04.301Z,1.83
2019-05-29T18:46:37.889Z,1.60
2019-05-29T18:49:08.068Z,1.50
2019-05-29T18:51:54.052Z,1.70
2019-05-29T18:54:25.805Z,1.50
2019-05-29T18:57:13.965Z,1.40
2019-05-29T18:59:27.531Z,1.70
2019-05-29T19:02:07.556Z,1.80
2019-05-29T19:04:43.029Z,3.00
2019-05-29T19:07:13.710Z,1.80
2019-05-29T19:09:58.492Z,1.90
2019-05-29T19:12:30.332Z,1.97
2019-05-29T19:15:00.228Z,2.20
2019-05-29T19:17:32.285Z,1.67
2019-05-29T19:20:03.816Z,1.50
2019-05-29T19:22:39.238Z,1.97
2019-05-29T19:25:39.174Z,2.37
2019-05-29T19:28:11.808Z,2.33
2019-05-29T19:30:42.915Z,2.83
2019-05-29T19:33:12.405Z,3.20
2019-05-29T19:35:51.347Z,3.40
2019-05-29T19:38:20.941Z,3.40
2019-05-29T19:40:50.519Z,3.47
2019-05-29T19:43:20.094Z,3.47
2019-05-29T19:45:49.345Z,4.73
2019-05-29T19:48:21.733Z,9.07
2019-05-29T19:50:54.403Z,6.93
2019-05-29T19:53:35.549Z,4.67
2019-05-29T19:56:05.510Z,3.73
2019-05-29T19:58:36.143Z,3.07
2019-05-29T20:01:29.782Z,3.17
2019-05-29T20:03:44.933Z,3.17
2019-05-29T20:06:16.705Z,3.40
2019-05-29T20:08:46.771Z,2.80
2019-05-29T20:11:16.069Z,3.40
2019-05-29T20:13:45.391Z,2.97
2019-05-29T20:16:29.966Z,5.20
2019-05-29T20:19:00.591Z,10.40
2019-05-29T20:21:32.899Z,9.73
2019-05-29T20:24:03.353Z,3.83
2019-05-29T20:26:33.032Z,3.93
2019-05-29T20:29:02.712Z,12.97
2019-05-29T20:31:43.900Z,12.20
2019-05-29T20:34:13.500Z,5.77
2019-05-29T20:36:45.935Z,6.07
2019-05-29T20:39:15.691Z,8.40
2019-05-29T20:41:48.267Z,4.43
2019-05-29T20:47:37.823Z,3.60
2019-05-29T20:50:28.048Z,6.40
2019-05-29T20:53:00.520Z,4.10
2019-05-29T20:55:31.565Z,3.40
2019-05-29T20:58:02.014Z,3.70
2019-05-29T21:00:33.954Z,3.57
2019-05-29T21:03:08.461Z,2.90
2019-05-29T21:05:38.631Z,3.60
2019-05-29T21:08:14.913Z,3.97
2019-05-29T21:11:35.336Z,3.30
2019-05-29T21:14:20.841Z,3.73
2019-05-29T21:17:38.106Z,3.20
2019-05-29T21:20:22.307Z,3.10
2019-05-29T21:23:30.214Z,3.23
2019-05-29T21:29:25.671Z,16.30
2019-05-29T21:32:13.037Z,12.57
2019-05-29T21:34:58.572Z,10.43
2019-05-29T21:37:30.590Z,8.43
2019-05-29T21:40:03.342Z,8.13
2019-05-29T21:42:46.889Z,7.70
2019-05-29T21:45:18.894Z,10.80
2019-05-29T21:48:13.208Z,16.57
2019-05-29T21:50:51.310Z,18.90
2019-05-29T21:53:21.069Z,10.07
2019-05-29T21:55:50.664Z,7.70
2019-05-29T21:58:21.643Z,6.20
2019-05-29T22:00:52.556Z,7.20
2019-05-29T22:03:22.116Z,6.63
2019-05-29T22:05:51.470Z,5.33
2019-05-29T22:08:24.625Z,4.50
2019-05-29T22:11:21.796Z,4.37
2019-05-29T22:13:52.551Z,3.30
2019-05-29T22:16:21.931Z,3.10
2019-05-29T22:18:53.247Z,3.83
2019-05-29T22:21:24.059Z,3.83
2019-05-29T22:24:06.784Z,3.30
2019-05-29T22:26:38.429Z,3.30
2019-05-29T22:29:18.486Z,3.10
2019-05-29T22:31:55.618Z,2.83
2019-05-29T22:34:31.256Z,3.20
2019-05-29T22:37:05.606Z,2.70
2019-05-29T22:39:35.861Z,2.33
2019-05-29T22:42:11.490Z,2.87
2019-05-29T22:44:41.027Z,3.17
2019-05-29T22:47:28.656Z,2.50
2019-05-29T22:49:59.630Z,2.90
2019-05-29T22:52:42.205Z,2.60
2019-05-29T22:58:49.076Z,3.47
2019-05-29T23:01:21.147Z,3.00
2019-05-29T23:03:52.545Z,2.70
2019-05-29T23:06:24.007Z,2.43
2019-05-29T23:09:03.629Z,2.90
2019-05-29T23:11:41.181Z,2.70
2019-05-29T23:14:09.515Z,2.27
2019-05-29T23:16:40.985Z,2.90
2019-05-29T23:19:18.805Z,2.80
2019-05-29T23:21:52.318Z,2.90
2019-05-29T23:24:42.081Z,2.53
2019-05-29T23:27:11.434Z,2.70
2019-05-29T23:29:48.938Z,2.33
2019-05-29T23:32:12.937Z,2.47
2019-05-29T23:34:42.415Z,3.00
2019-05-29T23:37:27.135Z,3.67
2019-05-29T23:40:07.067Z,7.67
2019-05-29T23:42:40.617Z,5.07
2019-05-29T23:45:16.440Z,3.57
2019-05-29T23:47:50.764Z,2.70
2019-05-29T23:50:23.596Z,2.40
2019-05-29T23:52:53.837Z,2.57
2019-05-29T23:55:23.474Z,2.20
2019-05-29T23:57:55.953Z,2.03
